createdAt,value
2018-11-14T00:08:42.637Z,98636.32
2018-11-14T00:19:02.986Z,98642.02
2018-11-14T00:29:20.992Z,98748.22
2018-11-14T00:39:38.824Z,98641.64
2018-11-14T00:49:57.384Z,98632.73
2018-11-14T01:00:23.512Z,98646.23
2018-11-14T01:10:41.958Z,98624.59
2018-11-14T01:21:01.384Z,98626.02
2018-11-14T01:31:19.583Z,98632.23
2018-11-14T01:41:38.282Z,98619.85
2018-11-14T01:51:56.632Z,98614.42
2018-11-14T02:02:14.549Z,98612.44
2018-11-14T02:12:32.725Z,98616.38
2018-11-14T02:22:51.032Z,98613.20
2018-11-14T02:33:09.136Z,98610.73
2018-11-14T02:43:27.287Z,98605.75
2018-11-14T02:53:45.292Z,98590.02
2018-11-14T03:04:03.625Z,98603.12
2018-11-14T03:14:21.892Z,98602.59
2018-11-14T03:24:40.424Z,98601.39
2018-11-14T03:34:58.284Z,98601.16
2018-11-14T03:45:16.566Z,98600.98
2018-11-14T03:55:35.112Z,98601.82
2018-11-14T04:05:53.600Z,98598.95
2018-11-14T04:16:11.645Z,98617.48
2018-11-14T04:26:30.273Z,98609.02
2018-11-14T04:36:48.217Z,98604.36
2018-11-14T04:47:05.863Z,98604.39
2018-11-14T04:57:24.016Z,98609.82
2018-11-14T05:07:42.017Z,98613.33
2018-11-14T05:18:00.127Z,98618.81
2018-11-14T05:28:17.830Z,98618.42
2018-11-14T05:38:36.046Z,98623.82
2018-11-14T05:48:54.442Z,98610.12
2018-11-14T05:59:12.952Z,98609.47
2018-11-14T06:09:31.350Z,98620.61
2018-11-14T06:19:49.240Z,98620.52
2018-11-14T06:29:49.132Z,98626.25
2018-11-14T06:39:48.956Z,98632.14
2018-11-14T06:49:48.888Z,98643.92
2018-11-14T06:59:48.950Z,98652.16
2018-11-14T07:09:48.681Z,98655.82
2018-11-14T07:19:48.616Z,98649.69
2018-11-14T07:29:48.462Z,98643.64
2018-11-14T07:39:48.319Z,98650.91
2018-11-14T07:50:09.762Z,98649.83
2018-11-14T08:00:27.795Z,98653.02
2018-11-14T08:10:46.295Z,98661.75
2018-11-14T08:21:04.944Z,98644.27
2018-11-14T08:31:23.200Z,98639.48
2018-11-14T08:41:41.532Z,98641.33
2018-11-14T08:52:00.108Z,98650.92
2018-11-14T09:02:18.138Z,98644.05
2018-11-14T09:12:36.351Z,98643.25
2018-11-14T09:22:54.209Z,98621.30
2018-11-14T09:33:12.191Z,98611.58
2018-11-14T09:43:30.176Z,98590.11
2018-11-14T09:53:48.429Z,98590.33
2018-11-14T10:04:08.387Z,98575.45
2018-11-14T10:14:27.065Z,98585.25
2018-11-14T10:24:45.368Z,98568.26
2018-11-14T10:35:03.424Z,98555.25
2018-11-14T10:45:23.011Z,98545.11
2018-11-14T10:55:41.303Z,98533.83
2018-11-14T11:06:17.363Z,98527.12
2018-11-14T11:16:35.215Z,98527.49
2018-11-14T11:26:54.382Z,98506.42
2018-11-14T11:37:12.128Z,98487.62
2018-11-14T11:47:30.677Z,98463.09
2018-11-14T11:57:48.749Z,98453.25
2018-11-14T12:08:06.663Z,98445.56
2018-11-14T12:18:24.488Z,98447.00
2018-11-14T12:28:42.530Z,98440.66
2018-11-14T12:39:00.320Z,98438.73
2018-11-14T12:49:18.502Z,98425.00
2018-11-14T12:59:37.085Z,98415.95
2018-11-14T13:09:55.380Z,98420.19
2018-11-14T13:20:15.787Z,98415.70
2018-11-14T13:30:33.723Z,98407.94
2018-11-14T13:40:52.023Z,98390.19
2018-11-14T13:51:10.286Z,98406.31
2018-11-14T14:01:28.648Z,98405.75
2018-11-14T14:11:46.918Z,98404.19
2018-11-14T14:22:05.105Z,98398.92
2018-11-14T14:32:23.503Z,98399.28
2018-11-14T14:42:41.823Z,98400.32
2018-11-14T14:53:00.220Z,98400.24
2018-11-14T15:03:18.468Z,98395.31
2018-11-14T15:13:36.195Z,98396.31
2018-11-14T15:23:54.540Z,98402.33
2018-11-14T15:34:12.955Z,98411.23
2018-11-14T15:44:31.144Z,98418.33
2018-11-14T15:54:49.196Z,98422.66
2018-11-14T16:05:08.991Z,98422.86
2018-11-14T16:15:29.360Z,98427.00
2018-11-14T16:25:47.367Z,98431.64
2018-11-14T16:36:06.612Z,98437.80
2018-11-14T16:46:24.918Z,98439.16
2018-11-14T16:56:42.652Z,98428.30
2018-11-14T17:07:01.177Z,98446.35
2018-11-14T17:17:19.283Z,98450.44
2018-11-14T17:27:37.384Z,98447.06
2018-11-14T17:37:55.230Z,98446.50
2018-11-14T17:48:13.534Z,98453.20
2018-11-14T17:58:31.543Z,98459.85
2018-11-14T18:08:49.544Z,98463.42
2018-11-14T18:19:08.273Z,98460.25
2018-11-14T18:29:26.385Z,98462.25
2018-11-14T18:39:44.389Z,98467.90
2018-11-14T18:50:02.341Z,98471.61
2018-11-14T19:00:32.011Z,98464.34
2018-11-14T19:10:50.379Z,98471.40
2018-11-14T19:21:09.233Z,98481.84
2018-11-14T19:31:27.602Z,98487.12
2018-11-14T19:41:50.355Z,98492.77
2018-11-14T19:52:09.434Z,98498.25
2018-11-14T20:02:27.777Z,98497.03
2018-11-14T20:12:46.930Z,98493.73
2018-11-14T20:23:06.030Z,98488.30
2018-11-14T20:33:24.850Z,98481.25
2018-11-14T20:43:43.245Z,98487.00
2018-11-14T20:54:04.808Z,98487.09
2018-11-14T21:04:22.930Z,98484.94
2018-11-14T21:14:41.558Z,98478.75
2018-11-14T21:25:00.494Z,98475.05
2018-11-14T21:35:23.987Z,98478.50
2018-11-14T21:45:42.868Z,98482.94
2018-11-14T21:56:01.350Z,98479.07
2018-11-14T22:06:19.650Z,98487.52
2018-11-14T22:16:38.690Z,98470.76
2018-11-14T22:26:57.062Z,98460.02
2018-11-14T22:37:16.014Z,98455.50
2018-11-14T22:47:41.628Z,98450.87
2018-11-14T22:58:00.010Z,98430.91
2018-11-14T23:08:18.065Z,98433.48
2018-11-14T23:18:36.892Z,98440.48
2018-11-14T23:28:55.040Z,98431.16
2018-11-14T23:39:14.653Z,98417.23
2018-11-14T23:49:34.502Z,98409.66
2018-11-14T23:59:53.246Z,98407.84
